Time;durP1;ratioP1;P1;durP2;ratioP2;P2;SDS_P1;SDS_P2;PMS_P1;PMS_P2;Temp;Humidity;BMP_temperature;BMP_pressure;BME280_temperature;BME280_humidity;BME280_pressure;Samples;Min_cycle;Max_cycle;Signal;HPM_P1;HPM_P2
2021/10/21 00:00:11;;;;;;;16.44;14.63;;;;;;;6.60;46.26;101597.20;462729;112;922612;-83
2021/10/21 00:01:15;;;;;;;14.82;13.18;;;;;;;6.60;46.32;101596.34;470967;112;922797;-84
2021/10/21 00:02:19;;;;;;;15.76;14.03;;;;;;;6.59;46.45;101603.63;469348;112;922474;-83
2021/10/21 00:03:23;;;;;;;17.58;14.69;;;;;;;6.58;46.51;101598.36;457817;114;930577;-83
2021/10/21 00:04:28;;;;;;;15.38;13.12;;;;;;;6.57;46.50;101597.51;460134;112;922864;-83
2021/10/21 00:05:32;;;;;;;14.59;13.06;;;;;;;6.59;46.60;101597.36;469243;112;922685;-84
2021/10/21 00:06:35;;;;;;;15.90;13.14;;;;;;;6.58;46.63;101593.80;468069;112;923072;-83
2021/10/21 00:07:39;;;;;;;14.91;13.23;;;;;;;6.59;46.65;101600.06;468246;112;922420;-84
2021/10/21 00:08:43;;;;;;;18.00;11.60;;;;;;;6.60;46.74;101601.77;470191;111;923106;-84
2021/10/21 00:09:46;;;;;;;14.59;12.44;;;;;;;6.60;46.74;101597.20;467169;113;922467;-84
2021/10/21 00:10:50;;;;;;;14.26;11.78;;;;;;;6.61;46.81;101592.63;467255;113;922749;-83
2021/10/21 00:11:54;;;;;;;15.14;12.06;;;;;;;6.62;46.85;101595.16;467462;113;923026;-83
2021/10/21 00:12:58;;;;;;;13.36;12.00;;;;;;;6.61;46.93;101581.79;467270;113;922751;-83
2021/10/21 00:14:02;;;;;;;18.41;11.99;;;;;;;6.62;46.93;101581.61;467186;113;930288;-82
2021/10/21 00:15:09;;;;;;;13.59;11.39;;;;;;;6.62;46.97;101575.33;467487;113;922393;-83
2021/10/21 00:16:14;;;;;;;15.75;11.48;;;;;;;6.62;46.98;101569.91;466767;113;930400;-82
2021/10/21 00:17:18;;;;;;;16.87;10.71;;;;;;;6.63;47.04;101571.61;466943;113;923006;-82
2021/10/21 00:18:21;;;;;;;16.54;11.33;;;;;;;6.63;47.15;101566.20;467948;113;922624;-83
2021/10/21 00:19:25;;;;;;;12.72;10.91;;;;;;;6.64;47.18;101568.75;467656;113;922377;-83
2021/10/21 00:20:28;;;;;;;12.05;10.65;;;;;;;6.64;47.24;101563.33;467499;113;930246;-82
2021/10/21 00:21:32;;;;;;;12.32;10.82;;;;;;;6.65;47.26;101562.32;468021;113;923041;-82
2021/10/21 00:22:36;;;;;;;12.29;11.01;;;;;;;6.68;47.33;101566.55;468053;113;930382;-85
2021/10/21 00:23:40;;;;;;;16.55;12.00;;;;;;;6.70;47.36;101561.82;467490;113;922672;-84
2021/10/21 00:24:43;;;;;;;13.76;10.89;;;;;;;6.72;47.40;101561.66;467513;113;922582;-84
2021/10/21 00:25:46;;;;;;;12.68;10.93;;;;;;;6.74;47.40;101556.91;467389;113;923038;-84
2021/10/21 00:26:50;;;;;;;10.93;9.91;;;;;;;6.76;47.44;101558.45;467407;113;930366;-82
2021/10/21 00:27:54;;;;;;;11.82;10.28;;;;;;;6.77;47.42;101554.73;467438;113;930896;-83
2021/10/21 00:28:57;;;;;;;11.96;10.68;;;;;;;6.77;47.49;101553.88;467449;113;930455;-82
2021/10/21 00:30:01;;;;;;;11.88;9.83;;;;;;;6.78;47.50;101553.69;467644;113;930605;-83
2021/10/21 00:31:05;;;;;;;12.31;10.64;;;;;;;6.79;47.53;101554.54;467025;113;922630;-82
2021/10/21 00:32:10;;;;;;;12.00;10.00;;;;;;;6.79;47.49;101549.97;466660;113;922602;-84
2021/10/21 00:33:13;;;;;;;10.14;9.11;;;;;;;6.80;47.53;101551.67;467779;113;922896;-84
2021/10/21 00:34:17;;;;;;;12.05;9.90;;;;;;;6.81;47.53;101555.23;466936;113;922455;-83
2021/10/21 00:35:21;;;;;;;14.11;10.05;;;;;;;6.81;47.54;101542.53;467073;113;930299;-84
2021/10/21 00:36:26;;;;;;;15.28;10.29;;;;;;;6.81;47.57;101541.68;467467;113;922879;-83
2021/10/21 00:37:29;;;;;;;12.65;10.08;;;;;;;6.81;47.58;101544.39;467814;113;922514;-82
2021/10/21 00:38:33;;;;;;;12.61;11.09;;;;;;;6.81;47.51;101547.10;467283;113;930320;-84
2021/10/21 00:39:36;;;;;;;13.29;10.66;;;;;;;6.81;47.51;101545.24;468735;113;922480;-83
2021/10/21 00:40:40;;;;;;;14.38;10.38;;;;;;;6.79;47.52;101539.13;468116;113;922867;-84
2021/10/21 00:41:43;;;;;;;15.89;10.53;;;;;;;6.81;47.47;101536.26;466945;113;930381;-84
2021/10/21 00:42:47;;;;;;;12.51;11.08;;;;;;;6.81;47.57;101525.42;467301;113;922851;-83
2021/10/21 00:43:56;;;;;;;11.22;10.12;;;;;;;6.81;47.58;101526.27;466960;113;922638;-82
2021/10/21 00:44:59;;;;;;;11.27;10.15;;;;;;;6.82;47.60;101527.97;464651;113;923020;-82
2021/10/21 00:46:06;;;;;;;10.94;9.81;;;;;;;6.82;47.59;101521.70;469105;112;922624;-82
2021/10/21 00:47:09;;;;;;;11.97;10.44;;;;;;;6.82;47.58;101530.68;469403;111;930082;-82
2021/10/21 00:48:13;;;;;;;11.95;10.14;;;;;;;6.81;47.56;101518.14;469048;113;922204;-81
2021/10/21 00:49:17;;;;;;;11.54;10.12;;;;;;;6.82;47.66;101518.98;468331;113;930046;-81
2021/10/21 00:50:22;;;;;;;12.72;10.31;;;;;;;6.82;47.66;101518.98;468450;112;922204;-83
2021/10/21 00:51:26;;;;;;;15.16;10.50;;;;;;;6.82;47.65;101519.84;469043;113;922134;-83
2021/10/21 00:52:31;;;;;;;12.50;10.68;;;;;;;6.83;47.66;101524.25;459687;113;922236;-83
2021/10/21 00:53:35;;;;;;;11.64;10.08;;;;;;;6.83;47.66;101524.25;459555;113;922348;-82
2021/10/21 00:54:39;;;;;;;13.81;10.70;;;;;;;6.82;47.66;101522.55;468586;113;922550;-82
2021/10/21 00:55:43;;;;;;;13.60;9.51;;;;;;;6.83;47.72;101524.25;468951;113;922587;-82
2021/10/21 00:56:48;;;;;;;10.41;9.18;;;;;;;6.83;47.73;101521.54;466824;112;922116;-83
2021/10/21 00:57:55;;;;;;;11.11;9.20;;;;;;;6.84;47.70;101515.08;467540;112;930362;-84
2021/10/21 00:58:58;;;;;;;9.59;8.48;;;;;;;6.85;47.77;101515.92;469305;112;922795;-82
2021/10/21 01:00:03;;;;;;;9.84;8.52;;;;;;;6.85;47.81;101514.06;468591;113;922184;-82
2021/10/21 01:01:07;;;;;;;12.46;7.98;;;;;;;6.86;47.81;101509.50;467428;110;922194;-82
2021/10/21 01:02:12;;;;;;;9.37;8.45;;;;;;;6.85;47.79;101505.08;468484;113;922877;-83
2021/10/21 01:03:15;;;;;;;9.62;8.68;;;;;;;6.84;47.86;101498.81;468385;113;922036;-82
2021/10/21 01:04:19;;;;;;;11.61;8.08;;;;;;;6.85;47.88;101495.09;468712;113;922591;-82
2021/10/21 01:05:22;;;;;;;9.11;7.97;;;;;;;6.85;47.87;101492.38;468532;113;922059;-83
2021/10/21 01:06:26;;;;;;;11.85;8.48;;;;;;;6.85;47.90;101491.53;466919;113;922245;-82
2021/10/21 01:07:31;;;;;;;9.89;7.54;;;;;;;6.85;48.00;101488.82;467389;113;922206;-82
2021/10/21 01:08:36;;;;;;;12.31;7.55;;;;;;;6.85;48.03;101491.53;468399;113;922094;-82
2021/10/21 01:09:42;;;;;;;8.96;6.71;;;;;;;6.86;48.12;101485.09;468202;113;929996;-83
2021/10/21 01:10:47;;;;;;;8.09;7.04;;;;;;;6.86;48.11;101488.66;468121;113;922306;-82
2021/10/21 01:11:51;;;;;;;8.14;6.66;;;;;;;6.88;48.10;101489.35;468352;113;922606;-82
2021/10/21 01:12:54;;;;;;;6.97;6.22;;;;;;;6.88;48.17;101494.77;468272;113;922615;-83
2021/10/21 01:13:58;;;;;;;7.07;6.09;;;;;;;6.88;48.19;101492.06;468805;113;922150;-82
2021/10/21 01:15:21;;;;;;;6.92;6.27;;;;;;;6.87;48.24;101484.94;468713;113;930169;-82
2021/10/21 01:16:25;;;;;;;6.74;6.08;;;;;;;6.88;48.26;101489.35;464220;113;929989;-82
2021/10/21 01:17:28;;;;;;;5.69;5.01;;;;;;;6.87;48.32;101487.65;468618;113;922074;-81
2021/10/21 01:18:33;;;;;;;5.41;4.91;;;;;;;6.88;48.45;101493.92;469215;113;930153;-82
2021/10/21 01:19:36;;;;;;;6.32;5.41;;;;;;;6.88;48.51;101491.21;468538;113;922299;-83
2021/10/21 01:20:40;;;;;;;5.89;5.04;;;;;;;6.87;48.58;101487.65;469089;113;930266;-84
2021/10/21 01:21:45;;;;;;;6.95;5.28;;;;;;;6.88;48.59;101483.93;468504;113;922722;-81
2021/10/21 01:22:49;;;;;;;5.46;4.54;;;;;;;6.90;48.61;101481.88;466970;113;930532;-82
2021/10/21 01:23:52;;;;;;;5.12;4.56;;;;;;;6.90;48.61;101479.16;467001;113;922764;-84
2021/10/21 01:24:56;;;;;;;7.72;4.66;;;;;;;6.93;48.72;101476.13;467539;113;930377;-82
2021/10/21 01:26:00;;;;;;;5.67;4.74;;;;;;;6.93;48.72;101476.13;467741;113;922469;-82
2021/10/21 01:27:04;;;;;;;5.66;5.05;;;;;;;6.94;48.74;101477.83;467803;113;922537;-82
2021/10/21 01:28:07;;;;;;;6.99;5.16;;;;;;;6.96;48.77;101478.48;467381;113;922473;-82
2021/10/21 01:29:11;;;;;;;5.72;5.14;;;;;;;6.97;48.75;101463.08;467355;113;930647;-82
2021/10/21 01:30:22;;;;;;;5.75;5.12;;;;;;;6.98;48.77;101468.34;467724;113;930874;-85
2021/10/21 01:31:25;;;;;;;7.47;4.83;;;;;;;6.99;48.75;101474.61;467299;113;928228;-82
2021/10/21 01:32:34;;;;;;;6.00;4.94;;;;;;;6.99;48.74;101470.03;467391;113;922425;-84
2021/10/21 01:33:35;;;;;;;5.69;4.96;;;;;;;6.99;48.76;101469.19;466713;112;930413;-82
2021/10/21 01:34:39;;;;;;;7.21;5.20;;;;;;;6.98;48.76;101468.34;467444;113;922890;-83
2021/10/21 01:35:42;;;;;;;6.31;5.72;;;;;;;6.98;48.77;101472.91;467060;113;922526;-83
2021/10/21 01:36:52;;;;;;;7.61;5.35;;;;;;;6.98;48.78;101467.48;467265;113;930514;-83
2021/10/21 01:37:56;;;;;;;7.68;5.16;;;;;;;6.98;48.86;101465.62;470006;112;922540;-82
2021/10/21 01:39:01;;;;;;;5.75;5.22;;;;;;;6.98;48.85;101456.64;467365;112;922555;-82
2021/10/21 01:40:05;;;;;;;5.91;5.18;;;;;;;6.97;48.91;101461.21;467736;113;930408;-84
2021/10/21 01:41:09;;;;;;;5.74;5.00;;;;;;;6.97;48.94;101449.52;467120;113;922891;-84
2021/10/21 01:42:13;;;;;;;7.78;5.38;;;;;;;6.97;48.97;101458.50;467877;113;922603;-83
2021/10/21 01:43:16;;;;;;;6.33;5.72;;;;;;;6.98;48.99;101453.92;467807;113;922908;-82
2021/10/21 01:44:19;;;;;;;7.16;5.55;;;;;;;6.97;49.01;101455.79;467049;113;930327;-81
2021/10/21 01:45:25;;;;;;;6.11;5.39;;;;;;;6.97;49.05;101461.21;467201;113;922542;-84
2021/10/21 01:46:29;;;;;;;5.38;4.79;;;;;;;6.99;49.11;101461.05;467444;113;922833;-82
2021/10/21 01:47:33;;;;;;;6.93;5.53;;;;;;;6.98;49.22;101454.78;467633;113;923188;-83
2021/10/21 01:48:36;;;;;;;5.78;5.08;;;;;;;6.99;49.22;101450.20;467338;113;930585;-83
2021/10/21 01:49:40;;;;;;;7.69;4.96;;;;;;;6.99;49.29;101453.77;467177;113;922591;-81
2021/10/21 01:50:43;;;;;;;5.09;4.56;;;;;;;6.99;49.34;101448.34;467870;113;922481;-82
2021/10/21 01:51:49;;;;;;;6.24;5.06;;;;;;;7.01;49.42;101457.14;467042;113;930484;-83
2021/10/21 01:52:52;;;;;;;5.73;4.86;;;;;;;7.01;49.43;101459.84;467116;113;931008;-83
2021/10/21 01:53:56;;;;;;;5.89;4.51;;;;;;;7.03;49.44;101457.83;467583;113;922477;-83
2021/10/21 01:54:59;;;;;;;6.31;4.91;;;;;;;7.04;49.52;101453.25;467526;113;930541;-82
2021/10/21 01:56:03;;;;;;;6.77;4.43;;;;;;;7.04;49.58;101448.67;466539;113;923035;-82
2021/10/21 01:57:06;;;;;;;6.26;4.38;;;;;;;7.05;49.61;101455.80;467936;113;922601;-82
2021/10/21 01:58:10;;;;;;;6.83;5.00;;;;;;;7.06;49.65;101452.05;467647;113;930247;-83
2021/10/21 01:59:13;;;;;;;4.97;4.49;;;;;;;7.06;49.70;101449.33;467755;113;922940;-82
2021/10/21 02:00:19;;;;;;;7.05;4.78;;;;;;;7.07;49.73;101453.75;466885;112;923086;-82
2021/10/21 02:01:23;;;;;;;5.46;4.11;;;;;;;7.07;49.76;101451.03;464183;112;922519;-82
2021/10/21 02:02:27;;;;;;;6.77;5.08;;;;;;;7.07;49.84;101456.45;467110;113;922452;-82
2021/10/21 02:03:30;;;;;;;5.26;4.15;;;;;;;7.08;49.91;101447.31;467478;113;922597;-82
2021/10/21 02:04:34;;;;;;;6.42;4.65;;;;;;;7.07;49.99;101447.47;467578;113;927417;-81
2021/10/21 02:05:37;;;;;;;4.75;4.18;;;;;;;7.07;50.04;101450.18;467509;113;922471;-81
2021/10/21 02:06:42;;;;;;;4.75;3.95;;;;;;;7.08;50.13;101446.46;467514;113;922949;-82
2021/10/21 02:07:45;;;;;;;4.94;3.78;;;;;;;7.07;50.21;101445.61;467160;113;922465;-82
2021/10/21 02:08:49;;;;;;;5.14;4.15;;;;;;;7.07;50.30;101447.47;467388;113;930467;-82
2021/10/21 02:09:52;;;;;;;4.53;4.11;;;;;;;7.05;50.41;101442.24;466603;113;922668;-83
2021/10/21 02:10:56;;;;;;;4.45;4.05;;;;;;;7.05;50.48;101444.95;467180;113;922795;-82
2021/10/21 02:11:59;;;;;;;5.01;4.04;;;;;;;7.05;50.54;101446.81;467446;113;930880;-83
2021/10/21 02:13:03;;;;;;;5.16;3.74;;;;;;;7.04;50.74;101442.41;467208;113;922513;-83
2021/10/21 02:14:07;;;;;;;6.98;3.91;;;;;;;7.04;50.74;101442.41;467988;113;922487;-82
2021/10/21 02:15:11;;;;;;;4.73;3.83;;;;;;;7.03;50.91;101449.69;467457;113;930567;-83
2021/10/21 02:16:16;;;;;;;6.57;4.09;;;;;;;7.02;51.00;101447.98;468281;113;922864;-85
2021/10/21 02:17:25;;;;;;;4.85;3.80;;;;;;;7.03;51.17;101448.84;467773;113;922520;-83
2021/10/21 02:18:27;;;;;;;4.66;3.65;;;;;;;7.01;51.22;101451.71;466626;113;930355;-84
2021/10/21 02:19:30;;;;;;;4.78;3.56;;;;;;;7.02;51.31;101455.27;467400;113;922723;-83
2021/10/21 02:20:34;;;;;;;4.41;3.88;;;;;;;7.01;51.46;101457.14;467050;113;922480;-82
2021/10/21 02:21:38;;;;;;;5.19;3.88;;;;;;;7.01;51.61;101459.84;467310;113;922886;-82
2021/10/21 02:22:41;;;;;;;4.04;3.64;;;;;;;7.01;51.69;101453.57;467631;113;922471;-83
2021/10/21 02:23:45;;;;;;;4.21;3.81;;;;;;;7.01;51.82;101454.42;467572;113;922455;-82
2021/10/21 02:24:48;;;;;;;4.53;3.57;;;;;;;7.01;51.93;101457.14;467174;113;922541;-84
2021/10/21 02:25:52;;;;;;;4.24;3.77;;;;;;;7.03;52.14;101454.27;467254;113;930560;-83
2021/10/21 02:26:55;;;;;;;3.92;3.48;;;;;;;7.01;52.24;101449.00;467203;113;922505;-82
2021/10/21 02:27:59;;;;;;;5.38;3.49;;;;;;;7.02;52.37;101452.56;466953;113;922544;-82
2021/10/21 02:29:02;;;;;;;4.87;3.33;;;;;;;7.04;52.54;101447.83;467577;113;930533;-82
2021/10/21 02:30:08;;;;;;;6.09;3.29;;;;;;;7.04;52.67;101456.81;467668;113;923013;-82
2021/10/21 02:31:11;;;;;;;4.32;3.47;;;;;;;7.06;52.77;101452.05;466901;113;922586;-82
2021/10/21 02:32:15;;;;;;;5.49;3.68;;;;;;;7.08;52.85;101441.88;467244;113;922578;-82
2021/10/21 02:33:19;;;;;;;10.64;4.40;;;;;;;7.08;53.05;101447.31;467762;113;922536;-83
2021/10/21 02:34:22;;;;;;;4.48;3.21;;;;;;;7.09;53.13;101448.16;467696;113;922611;-82
2021/10/21 02:35:26;;;;;;;4.22;3.30;;;;;;;7.09;53.20;101440.02;467648;113;922649;-83
2021/10/21 02:36:30;;;;;;;4.34;3.24;;;;;;;7.10;53.35;101450.70;467094;113;923002;-82
2021/10/21 02:37:34;;;;;;;5.25;3.81;;;;;;;7.11;53.44;101446.95;467117;113;923107;-82
2021/10/21 02:38:37;;;;;;;4.32;3.38;;;;;;;7.12;53.58;101448.66;467760;113;922613;-82
2021/10/21 02:39:41;;;;;;;4.34;3.37;;;;;;;7.12;53.72;101439.67;467769;113;922429;-83
2021/10/21 02:40:44;;;;;;;4.49;3.26;;;;;;;7.14;54.00;101448.48;467987;113;930526;-83
2021/10/21 02:41:48;;;;;;;4.06;3.26;;;;;;;7.14;54.00;101448.48;467331;113;930538;-84
2021/10/21 02:42:52;;;;;;;5.32;3.32;;;;;;;7.15;54.20;101447.48;466609;113;922881;-82
2021/10/21 02:43:55;;;;;;;5.19;3.14;;;;;;;7.16;54.36;101454.59;467754;113;922849;-84
2021/10/21 02:44:59;;;;;;;4.11;3.29;;;;;;;7.17;54.58;101450.03;467389;113;922730;-82
2021/10/21 02:46:02;;;;;;;4.72;4.08;;;;;;;7.16;54.71;101454.59;467216;113;922939;-83
2021/10/21 02:47:06;;;;;;;3.74;3.06;;;;;;;7.17;54.88;101447.31;467243;113;930492;-84
2021/10/21 02:48:09;;;;;;;3.18;2.88;;;;;;;7.18;55.03;101440.84;466678;113;922969;-84
2021/10/21 02:49:13;;;;;;;3.89;3.08;;;;;;;7.18;55.15;101447.13;467150;113;930508;-83
2021/10/21 02:50:17;;;;;;;6.39;4.20;;;;;;;7.18;55.29;101448.98;467586;113;930587;-84
2021/10/21 02:51:21;;;;;;;4.44;3.42;;;;;;;7.19;55.42;101442.55;467369;113;923008;-82
2021/10/21 02:52:24;;;;;;;3.43;3.12;;;;;;;7.19;55.57;101439.83;466885;113;930502;-82
2021/10/21 02:53:27;;;;;;;5.22;3.25;;;;;;;7.19;55.75;101443.39;467371;113;923022;-84
2021/10/21 02:54:31;;;;;;;3.92;3.06;;;;;;;7.20;55.90;101436.95;466832;113;922694;-83
2021/10/21 02:55:34;;;;;;;5.87;3.08;;;;;;;7.20;56.09;101438.82;466871;113;930888;-82
2021/10/21 02:56:38;;;;;;;6.48;2.91;;;;;;;7.19;56.20;101440.69;466399;113;930441;-83
2021/10/21 02:57:42;;;;;;;3.58;2.89;;;;;;;7.20;56.34;101436.11;466964;113;922518;-82
2021/10/21 02:58:45;;;;;;;3.17;2.86;;;;;;;7.19;56.43;101435.26;467170;112;922665;-82
2021/10/21 02:59:49;;;;;;;4.24;3.04;;;;;;;7.19;56.54;101429.83;468048;112;922698;-82
2021/10/21 03:00:53;;;;;;;4.26;3.34;;;;;;;7.21;56.67;101433.23;466814;113;922827;-83
2021/10/21 03:01:56;;;;;;;3.41;2.85;;;;;;;7.22;56.74;101436.80;467553;113;922540;-83
2021/10/21 03:03:00;;;;;;;4.81;3.35;;;;;;;7.22;56.83;101431.38;466479;113;922994;-83
2021/10/21 03:04:04;;;;;;;4.76;3.45;;;;;;;7.22;56.92;101432.22;467375;113;922380;-83
2021/10/21 03:05:09;;;;;;;4.59;3.38;;;;;;;7.24;57.00;101434.73;467568;113;930416;-82
2021/10/21 03:06:13;;;;;;;4.87;3.80;;;;;;;7.24;57.15;101429.31;465517;113;922610;-83
2021/10/21 03:07:17;;;;;;;4.46;3.25;;;;;;;7.25;57.27;101431.02;458127;115;922633;-83
2021/10/21 03:08:20;;;;;;;3.96;3.21;;;;;;;7.25;57.33;101426.44;458230;113;923037;-83
2021/10/21 03:09:23;;;;;;;5.54;3.83;;;;;;;7.26;57.40;101438.13;466947;113;922345;-83
2021/10/21 03:10:28;;;;;;;3.90;3.56;;;;;;;7.27;57.49;101428.98;466419;113;922730;-83
2021/10/21 03:11:32;;;;;;;5.12;3.79;;;;;;;7.29;57.67;101426.92;463754;113;922460;-83
2021/10/21 03:12:36;;;;;;;6.31;4.00;;;;;;;7.29;57.73;101424.22;464467;113;923078;-84
2021/10/21 03:13:41;;;;;;;5.12;3.61;;;;;;;7.31;57.78;101419.47;462411;113;923041;-84
2021/10/21 03:14:44;;;;;;;5.50;4.01;;;;;;;7.34;57.82;101424.53;461850;113;922794;-82
2021/10/21 03:15:47;;;;;;;4.21;3.75;;;;;;;7.36;57.82;101425.22;465152;113;922517;-82
2021/10/21 03:16:51;;;;;;;4.60;4.20;;;;;;;7.37;57.88;101425.05;465967;113;922942;-83
2021/10/21 03:17:55;;;;;;;3.91;3.51;;;;;;;7.37;57.94;101419.63;462985;113;922971;-83
2021/10/21 03:18:59;;;;;;;3.70;3.32;;;;;;;7.38;58.06;101415.05;464656;113;922604;-81
2021/10/21 03:20:03;;;;;;;4.72;3.77;;;;;;;7.37;58.14;101414.20;465463;113;922508;-84
2021/10/21 03:21:07;;;;;;;4.79;3.64;;;;;;;7.38;58.20;101410.48;464277;113;930395;-82
2021/10/21 03:22:10;;;;;;;3.84;3.49;;;;;;;7.38;58.29;101410.48;466207;113;922998;-82
2021/10/21 03:23:14;;;;;;;3.91;3.54;;;;;;;7.37;58.44;101411.50;458102;115;923070;-84
2021/10/21 03:24:17;;;;;;;5.78;3.42;;;;;;;7.38;58.53;101412.34;456722;115;930670;-82
2021/10/21 03:25:22;;;;;;;5.65;4.07;;;;;;;7.37;58.66;101407.93;463564;113;930469;-83
2021/10/21 03:26:26;;;;;;;4.19;3.79;;;;;;;7.36;58.78;101400.81;464648;113;922721;-83
2021/10/21 03:27:30;;;;;;;4.21;3.85;;;;;;;7.36;58.92;101408.95;463087;113;928858;-82
2021/10/21 03:28:34;;;;;;;4.15;3.45;;;;;;;7.35;59.00;101405.38;463994;113;922578;-83
2021/10/21 03:29:37;;;;;;;5.41;4.06;;;;;;;7.34;59.13;101403.69;463634;113;922529;-84
2021/10/21 03:30:41;;;;;;;8.72;4.45;;;;;;;7.36;59.18;101411.66;459954;115;922741;-83
2021/10/21 03:31:45;;;;;;;5.27;4.28;;;;;;;7.35;59.23;101410.81;459035;113;930744;-83
2021/10/21 03:32:48;;;;;;;6.53;5.27;;;;;;;7.35;59.33;101410.81;463555;113;930923;-81
2021/10/21 03:33:51;;;;;;;7.60;6.10;;;;;;;7.35;59.39;101409.95;463791;113;930555;-83
2021/10/21 03:34:55;;;;;;;6.91;5.66;;;;;;;7.35;59.51;101410.81;464891;113;922537;-80
2021/10/21 03:36:01;;;;;;;5.91;5.34;;;;;;;7.33;59.57;101415.55;463932;113;922506;-82
2021/10/21 03:37:05;;;;;;;7.38;5.68;;;;;;;7.31;59.75;101409.47;465672;113;922601;-83
2021/10/21 03:38:08;;;;;;;8.85;8.05;;;;;;;7.29;59.87;101402.52;463097;113;922829;-84
2021/10/21 03:39:12;;;;;;;10.47;9.31;;;;;;;7.28;60.02;101409.80;462551;113;930483;-82
2021/10/21 03:40:16;;;;;;;11.55;8.90;;;;;;;7.28;60.10;101393.53;463362;113;930930;-82
2021/10/21 03:41:20;;;;;;;9.48;8.44;;;;;;;7.28;60.28;101396.23;464691;113;922505;-82
2021/10/21 03:42:24;;;;;;;7.44;6.75;;;;;;;7.28;60.28;101396.23;465243;113;930525;-82
2021/10/21 03:43:27;;;;;;;7.61;5.85;;;;;;;7.28;60.44;101392.67;465918;113;930573;-83
2021/10/21 03:44:30;;;;;;;6.64;5.03;;;;;;;7.27;60.58;101389.14;464373;113;923102;-83
2021/10/21 03:45:35;;;;;;;5.71;5.20;;;;;;;7.27;60.73;101396.44;466770;113;930490;-82
2021/10/21 03:46:39;;;;;;;4.93;4.49;;;;;;;7.27;60.78;101396.44;463241;113;922617;-82
2021/10/21 03:47:43;;;;;;;7.53;4.29;;;;;;;7.26;60.87;101389.31;463132;113;931031;-82
2021/10/21 03:48:47;;;;;;;5.40;4.72;;;;;;;7.26;61.03;101395.59;463988;113;922656;-83
2021/10/21 03:49:51;;;;;;;6.67;4.69;;;;;;;7.26;61.13;101390.16;464728;113;930561;-84
2021/10/21 03:50:54;;;;;;;4.87;4.44;;;;;;;7.26;61.22;101384.73;465538;113;922397;-83
2021/10/21 03:51:58;;;;;;;5.69;5.03;;;;;;;7.27;61.42;101375.58;464824;113;922572;-82
2021/10/21 03:53:01;;;;;;;4.79;4.34;;;;;;;7.27;61.56;101380.16;462286;113;922858;-82
2021/10/21 03:54:05;;;;;;;8.28;5.45;;;;;;;7.27;61.68;101375.58;466529;113;923064;-82
2021/10/21 03:55:08;;;;;;;6.62;5.46;;;;;;;7.27;61.85;101369.31;464171;113;923034;-83
2021/10/21 03:56:12;;;;;;;7.22;5.26;;;;;;;7.28;62.00;101379.11;464161;113;922536;-81
2021/10/21 03:57:16;;;;;;;4.90;4.47;;;;;;;7.28;62.13;101373.69;464966;113;922978;-82
2021/10/21 03:58:19;;;;;;;8.49;5.54;;;;;;;7.28;62.21;101369.11;464376;113;922702;-84
2021/10/21 03:59:23;;;;;;;6.08;5.29;;;;;;;7.29;62.35;101367.25;462498;113;930519;-81
2021/10/21 04:00:27;;;;;;;18.59;5.63;;;;;;;7.28;62.48;101376.40;465106;112;922453;-82
2021/10/21 04:01:30;;;;;;;5.67;4.94;;;;;;;7.30;62.59;101371.66;464329;113;923055;-82
2021/10/21 04:02:38;;;;;;;5.83;5.07;;;;;;;7.30;62.76;101367.08;463602;113;922718;-83
2021/10/21 04:03:41;;;;;;;5.59;5.09;;;;;;;7.31;62.86;101376.07;463688;113;930586;-82
2021/10/21 04:04:45;;;;;;;5.47;4.95;;;;;;;7.31;62.93;101367.93;463540;113;922911;-81
2021/10/21 04:05:48;;;;;;;6.69;5.29;;;;;;;7.31;62.99;101370.64;463740;113;922595;-82
2021/10/21 04:06:52;;;;;;;5.83;5.16;;;;;;;7.31;63.05;101371.49;465128;113;922973;-82
2021/10/21 04:07:55;;;;;;;5.81;5.16;;;;;;;7.33;63.12;101366.72;465533;113;923239;-83
2021/10/21 04:08:59;;;;;;;5.96;5.37;;;;;;;7.35;63.21;101366.55;464526;113;923070;-82
2021/10/21 04:10:04;;;;;;;7.79;4.94;;;;;;;7.35;63.62;101369.27;463794;113;922924;-84
2021/10/21 04:11:07;;;;;;;5.30;4.79;;;;;;;7.35;63.62;101371.98;466802;112;930516;-82
2021/10/21 04:12:11;;;;;;;5.76;5.25;;;;;;;7.36;63.69;101370.97;466681;112;922791;-82
2021/10/21 04:13:15;;;;;;;4.66;4.16;;;;;;;7.37;63.76;101364.52;470364;112;922712;-83
2021/10/21 04:14:18;;;;;;;6.89;4.79;;;;;;;7.38;63.85;101364.36;468772;112;930523;-84
2021/10/21 04:15:25;;;;;;;6.37;4.42;;;;;;;7.40;64.02;101358.73;469555;112;930563;-82
2021/10/21 04:16:28;;;;;;;5.12;4.61;;;;;;;7.41;64.15;101366.70;468921;112;922495;-82
2021/10/21 04:17:31;;;;;;;4.31;3.96;;;;;;;7.43;64.29;101356.53;471041;112;922801;-82
2021/10/21 04:18:35;;;;;;;5.11;4.50;;;;;;;7.45;64.42;101364.48;468958;112;930401;-83
2021/10/21 04:19:38;;;;;;;5.07;4.34;;;;;;;7.45;64.59;101361.77;469237;112;930578;-82
2021/10/21 04:20:42;;;;;;;5.11;3.96;;;;;;;7.46;64.61;101356.17;469826;112;922580;-82
2021/10/21 04:21:46;;;;;;;4.45;3.99;;;;;;;7.49;64.65;101360.41;469834;112;930583;-81
2021/10/21 04:22:49;;;;;;;5.11;4.16;;;;;;;7.51;64.77;101366.49;469948;112;922998;-82
2021/10/21 04:23:54;;;;;;;4.66;4.24;;;;;;;7.52;64.89;101357.34;470135;112;930199;-83
2021/10/21 04:24:58;;;;;;;9.52;5.67;;;;;;;7.53;65.00;101359.88;469780;112;922710;-82
2021/10/21 04:26:02;;;;;;;6.18;5.32;;;;;;;7.54;65.17;101360.73;469663;112;922321;-83
2021/10/21 04:27:06;;;;;;;7.39;6.54;;;;;;;7.54;65.30;101358.02;466770;112;922551;-82
2021/10/21 04:28:10;;;;;;;6.42;5.91;;;;;;;7.55;65.36;101351.58;470114;112;930573;-82
2021/10/21 04:29:13;;;;;;;9.77;6.12;;;;;;;7.58;65.49;101361.22;468149;112;930447;-81
2021/10/21 04:30:19;;;;;;;6.06;5.33;;;;;;;7.58;65.49;101361.22;469346;112;930540;-81
2021/10/21 04:31:22;;;;;;;5.35;4.82;;;;;;;7.58;65.57;101362.06;471682;112;922480;-81
2021/10/21 04:32:26;;;;;;;5.19;4.72;;;;;;;7.59;65.76;101358.33;469356;112;923008;-82
2021/10/21 04:33:29;;;;;;;4.91;4.46;;;;;;;7.60;65.88;101360.03;469339;112;930360;-82
2021/10/21 04:34:33;;;;;;;6.26;5.14;;;;;;;7.61;65.94;101344.59;467917;112;930594;-82
2021/10/21 04:35:37;;;;;;;9.28;5.49;;;;;;;7.62;66.00;101351.69;468030;112;930550;-84
2021/10/21 04:36:41;;;;;;;8.20;4.64;;;;;;;7.64;66.13;101361.36;468030;112;922981;-84
2021/10/21 04:37:45;;;;;;;6.00;5.36;;;;;;;7.65;66.26;101356.78;468587;111;922510;-83
2021/10/21 04:38:48;;;;;;;5.48;4.27;;;;;;;7.66;66.34;101361.19;468315;111;922529;-83
2021/10/21 04:39:52;;;;;;;4.79;4.27;;;;;;;7.66;66.45;101359.33;469869;112;930506;-81
2021/10/21 04:40:55;;;;;;;6.30;4.16;;;;;;;7.68;66.52;101357.26;468814;112;930498;-81
2021/10/21 04:41:59;;;;;;;5.56;4.24;;;;;;;7.70;66.68;101359.80;469114;112;922623;-80
2021/10/21 04:43:02;;;;;;;6.03;4.19;;;;;;;7.70;66.92;101360.66;459539;114;930525;-82
2021/10/21 04:44:06;;;;;;;5.56;3.96;;;;;;;7.72;66.98;101360.48;462851;112;930484;-81
2021/10/21 04:45:10;;;;;;;5.31;4.20;;;;;;;7.74;67.02;101367.41;471487;112;930121;-82
2021/10/21 04:46:15;;;;;;;4.32;3.92;;;;;;;7.75;67.09;101354.69;465914;112;922806;-82
2021/10/21 04:47:18;;;;;;;5.30;4.48;;;;;;;7.77;67.16;101350.79;469897;112;923106;-83
2021/10/21 04:48:22;;;;;;;5.32;4.45;;;;;;;7.79;67.25;101354.15;471692;111;930524;-82
2021/10/21 04:49:26;;;;;;;5.82;5.22;;;;;;;7.82;67.31;101352.96;470608;112;930564;-82
2021/10/21 04:50:30;;;;;;;6.05;4.41;;;;;;;7.83;67.56;101355.48;469858;112;922924;-83
2021/10/21 04:51:34;;;;;;;5.76;4.31;;;;;;;7.85;67.57;101345.30;469758;112;930071;-83
2021/10/21 04:52:37;;;;;;;4.25;3.81;;;;;;;7.87;67.60;101347.84;471353;112;922212;-82
2021/10/21 04:53:41;;;;;;;5.39;3.75;;;;;;;7.88;67.62;101352.25;467510;112;922160;-84
2021/10/21 04:54:44;;;;;;;4.58;3.95;;;;;;;7.90;67.75;101348.31;470422;111;922918;-83
2021/10/21 04:55:48;;;;;;;6.66;4.39;;;;;;;7.93;67.80;101353.41;466549;112;930454;-82